sensor_id;sensor_type;location;lat;lon;timestamp;P1;durP1;ratioP1;P2;durP2;ratioP2
75535;SDS011;64119;52.070;20.804;2024-03-22T00:00:11;38.20;;;19.70;;
75535;SDS011;64119;52.070;20.804;2024-03-22T00:02:59;41.90;;;18.80;;
75535;SDS011;64119;52.070;20.804;2024-03-22T00:05:27;36.40;;;18.50;;
75535;SDS011;64119;52.070;20.804;2024-03-22T00:07:54;42.80;;;19.70;;
75535;SDS011;64119;52.070;20.804;2024-03-22T00:10:22;39.30;;;18.80;;
75535;SDS011;64119;52.070;20.804;2024-03-22T00:12:49;41.80;;;20.50;;
75535;SDS011;64119;52.070;20.804;2024-03-22T00:15:17;41.70;;;20.20;;
75535;SDS011;64119;52.070;20.804;2024-03-22T00:17:45;41.10;;;19.90;;
75535;SDS011;64119;52.070;20.804;2024-03-22T00:20:12;43.00;;;19.40;;
75535;SDS011;64119;52.070;20.804;2024-03-22T00:22:40;40.50;;;20.10;;
75535;SDS011;64119;52.070;20.804;2024-03-22T00:25:08;38.00;;;18.70;;
75535;SDS011;64119;52.070;20.804;2024-03-22T00:27:35;38.60;;;18.70;;
75535;SDS011;64119;52.070;20.804;2024-03-22T00:30:03;43.30;;;20.90;;
75535;SDS011;64119;52.070;20.804;2024-03-22T00:32:32;38.70;;;20.00;;
75535;SDS011;64119;52.070;20.804;2024-03-22T00:34:59;41.70;;;19.90;;
75535;SDS011;64119;52.070;20.804;2024-03-22T00:37:27;40.40;;;20.70;;
75535;SDS011;64119;52.070;20.804;2024-03-22T00:39:55;42.20;;;20.50;;
75535;SDS011;64119;52.070;20.804;2024-03-22T00:42:22;45.70;;;21.10;;
75535;SDS011;64119;52.070;20.804;2024-03-22T00:44:50;42.30;;;20.40;;
75535;SDS011;64119;52.070;20.804;2024-03-22T00:47:17;43.30;;;21.10;;
75535;SDS011;64119;52.070;20.804;2024-03-22T00:49:45;46.30;;;22.10;;
75535;SDS011;64119;52.070;20.804;2024-03-22T00:52:12;48.30;;;22.50;;
75535;SDS011;64119;52.070;20.804;2024-03-22T00:54:40;41.30;;;20.50;;
75535;SDS011;64119;52.070;20.804;2024-03-22T00:57:07;45.20;;;22.30;;
75535;SDS011;64119;52.070;20.804;2024-03-22T00:59:35;46.80;;;22.60;;
75535;SDS011;64119;52.070;20.804;2024-03-22T01:02:03;48.80;;;22.80;;
75535;SDS011;64119;52.070;20.804;2024-03-22T01:04:31;50.80;;;24.00;;
75535;SDS011;64119;52.070;20.804;2024-03-22T01:06:58;48.80;;;23.90;;
75535;SDS011;64119;52.070;20.804;2024-03-22T01:09:26;50.90;;;24.10;;
75535;SDS011;64119;52.070;20.804;2024-03-22T01:11:53;41.20;;;21.00;;
75535;SDS011;64119;52.070;20.804;2024-03-22T01:14:21;43.20;;;20.00;;
75535;SDS011;64119;52.070;20.804;2024-03-22T01:16:48;46.00;;;22.10;;
75535;SDS011;64119;52.070;20.804;2024-03-22T01:19:16;47.40;;;22.90;;
75535;SDS011;64119;52.070;20.804;2024-03-22T01:21:43;43.30;;;21.30;;
75535;SDS011;64119;52.070;20.804;2024-03-22T01:24:11;44.90;;;21.50;;
75535;SDS011;64119;52.070;20.804;2024-03-22T01:26:38;45.30;;;22.40;;
75535;SDS011;64119;52.070;20.804;2024-03-22T01:29:06;48.40;;;23.60;;
75535;SDS011;64119;52.070;20.804;2024-03-22T01:31:33;51.40;;;24.70;;
75535;SDS011;64119;52.070;20.804;2024-03-22T01:34:01;45.90;;;21.70;;
75535;SDS011;64119;52.070;20.804;2024-03-22T01:36:28;51.70;;;23.50;;
75535;SDS011;64119;52.070;20.804;2024-03-22T01:38:56;55.50;;;26.90;;
75535;SDS011;64119;52.070;20.804;2024-03-22T01:41:24;55.50;;;25.20;;
75535;SDS011;64119;52.070;20.804;2024-03-22T01:43:51;49.80;;;25.00;;
75535;SDS011;64119;52.070;20.804;2024-03-22T01:46:19;49.20;;;22.70;;
75535;SDS011;64119;52.070;20.804;2024-03-22T01:48:46;59.10;;;30.10;;
75535;SDS011;64119;52.070;20.804;2024-03-22T01:51:14;48.70;;;25.00;;
75535;SDS011;64119;52.070;20.804;2024-03-22T01:53:41;43.40;;;22.80;;
75535;SDS011;64119;52.070;20.804;2024-03-22T01:56:09;51.80;;;26.20;;
75535;SDS011;64119;52.070;20.804;2024-03-22T01:58:37;50.90;;;24.30;;
75535;SDS011;64119;52.070;20.804;2024-03-22T02:01:05;50.70;;;24.50;;
75535;SDS011;64119;52.070;20.804;2024-03-22T02:03:32;52.30;;;23.00;;
75535;SDS011;64119;52.070;20.804;2024-03-22T02:06:00;55.80;;;23.90;;
75535;SDS011;64119;52.070;20.804;2024-03-22T02:08:27;45.90;;;23.00;;
75535;SDS011;64119;52.070;20.804;2024-03-22T02:10:55;49.90;;;24.30;;
75535;SDS011;64119;52.070;20.804;2024-03-22T02:13:22;48.90;;;22.00;;
75535;SDS011;64119;52.070;20.804;2024-03-22T02:15:50;49.10;;;24.10;;
75535;SDS011;64119;52.070;20.804;2024-03-22T02:18:17;49.40;;;23.60;;
75535;SDS011;64119;52.070;20.804;2024-03-22T02:20:45;51.90;;;23.40;;
75535;SDS011;64119;52.070;20.804;2024-03-22T02:23:12;51.60;;;24.20;;
75535;SDS011;64119;52.070;20.804;2024-03-22T02:25:40;55.90;;;25.60;;
75535;SDS011;64119;52.070;20.804;2024-03-22T02:28:07;45.80;;;23.10;;
75535;SDS011;64119;52.070;20.804;2024-03-22T02:30:35;51.60;;;23.00;;
75535;SDS011;64119;52.070;20.804;2024-03-22T02:33:03;46.70;;;23.20;;
75535;SDS011;64119;52.070;20.804;2024-03-22T02:35:30;47.90;;;22.00;;
75535;SDS011;64119;52.070;20.804;2024-03-22T02:37:58;52.40;;;23.70;;
75535;SDS011;64119;52.070;20.804;2024-03-22T02:40:26;49.00;;;23.30;;
75535;SDS011;64119;52.070;20.804;2024-03-22T02:42:53;49.00;;;22.90;;
75535;SDS011;64119;52.070;20.804;2024-03-22T02:45:21;49.70;;;24.30;;
75535;SDS011;64119;52.070;20.804;2024-03-22T02:47:48;51.60;;;23.10;;
75535;SDS011;64119;52.070;20.804;2024-03-22T02:50:16;57.80;;;26.40;;
75535;SDS011;64119;52.070;20.804;2024-03-22T02:52:43;49.80;;;23.40;;
75535;SDS011;64119;52.070;20.804;2024-03-22T02:55:11;46.20;;;22.50;;
75535;SDS011;64119;52.070;20.804;2024-03-22T02:57:38;44.00;;;22.80;;
75535;SDS011;64119;52.070;20.804;2024-03-22T03:00:06;49.00;;;23.70;;
75535;SDS011;64119;52.070;20.804;2024-03-22T03:02:34;53.90;;;25.00;;
75535;SDS011;64119;52.070;20.804;2024-03-22T03:05:01;55.60;;;24.60;;
75535;SDS011;64119;52.070;20.804;2024-03-22T03:07:30;53.90;;;24.60;;
75535;SDS011;64119;52.070;20.804;2024-03-22T03:09:58;45.90;;;21.70;;
75535;SDS011;64119;52.070;20.804;2024-03-22T03:12:25;44.40;;;21.70;;
75535;SDS011;64119;52.070;20.804;2024-03-22T03:14:53;39.10;;;20.50;;
75535;SDS011;64119;52.070;20.804;2024-03-22T03:17:20;36.90;;;18.20;;
75535;SDS011;64119;52.070;20.804;2024-03-22T03:19:48;41.30;;;19.90;;
75535;SDS011;64119;52.070;20.804;2024-03-22T03:22:16;41.00;;;20.60;;
75535;SDS011;64119;52.070;20.804;2024-03-22T03:24:43;43.80;;;19.70;;
75535;SDS011;64119;52.070;20.804;2024-03-22T03:27:11;41.10;;;19.30;;
75535;SDS011;64119;52.070;20.804;2024-03-22T03:29:38;43.10;;;21.20;;
75535;SDS011;64119;52.070;20.804;2024-03-22T03:32:06;37.40;;;18.70;;
75535;SDS011;64119;52.070;20.804;2024-03-22T03:34:33;38.40;;;18.70;;
75535;SDS011;64119;52.070;20.804;2024-03-22T03:37:01;34.70;;;17.30;;
75535;SDS011;64119;52.070;20.804;2024-03-22T03:39:28;35.20;;;17.00;;
75535;SDS011;64119;52.070;20.804;2024-03-22T03:41:56;36.50;;;16.00;;
75535;SDS011;64119;52.070;20.804;2024-03-22T03:44:24;31.80;;;16.50;;
75535;SDS011;64119;52.070;20.804;2024-03-22T03:46:51;30.50;;;14.60;;
75535;SDS011;64119;52.070;20.804;2024-03-22T03:49:19;30.20;;;15.80;;
75535;SDS011;64119;52.070;20.804;2024-03-22T03:51:46;29.10;;;14.20;;
75535;SDS011;64119;52.070;20.804;2024-03-22T03:54:14;28.10;;;14.10;;
75535;SDS011;64119;52.070;20.804;2024-03-22T03:56:41;23.80;;;12.30;;
75535;SDS011;64119;52.070;20.804;2024-03-22T03:59:09;22.00;;;12.30;;
75535;SDS011;64119;52.070;20.804;2024-03-22T04:01:36;22.70;;;11.80;;
75535;SDS011;64119;52.070;20.804;2024-03-22T04:04:04;23.20;;;13.20;;
75535;SDS011;64119;52.070;20.804;2024-03-22T04:06:31;24.20;;;13.30;;
75535;SDS011;64119;52.070;20.804;2024-03-22T04:08:59;25.70;;;12.70;;
75535;SDS011;64119;52.070;20.804;2024-03-22T04:11:26;21.90;;;10.90;;
75535;SDS011;64119;52.070;20.804;2024-03-22T04:13:54;23.70;;;12.50;;
75535;SDS011;64119;52.070;20.804;2024-03-22T04:16:22;23.80;;;13.20;;
75535;SDS011;64119;52.070;20.804;2024-03-22T04:18:49;26.40;;;13.80;;
75535;SDS011;64119;52.070;20.804;2024-03-22T04:21:17;24.80;;;13.80;;
75535;SDS011;64119;52.070;20.804;2024-03-22T04:23:44;27.60;;;14.70;;
75535;SDS011;64119;52.070;20.804;2024-03-22T04:26:12;26.50;;;14.10;;
75535;SDS011;64119;52.070;20.804;2024-03-22T04:28:39;32.20;;;15.80;;
75535;SDS011;64119;52.070;20.804;2024-03-22T04:31:07;29.70;;;14.90;;
75535;SDS011;64119;52.070;20.804;2024-03-22T04:33:36;29.50;;;15.50;;
75535;SDS011;64119;52.070;20.804;2024-03-22T04:36:05;29.40;;;14.90;;
75535;SDS011;64119;52.070;20.804;2024-03-22T04:38:33;28.00;;;15.00;;
75535;SDS011;64119;52.070;20.804;2024-03-22T04:41:00;24.60;;;13.30;;
75535;SDS011;64119;52.070;20.804;2024-03-22T04:43:28;29.30;;;15.30;;
75535;SDS011;64119;52.070;20.804;2024-03-22T04:45:56;27.00;;;13.70;;
75535;SDS011;64119;52.070;20.804;2024-03-22T04:48:23;28.70;;;13.00;;
75535;SDS011;64119;52.070;20.804;2024-03-22T04:50:52;28.90;;;14.10;;
75535;SDS011;64119;52.070;20.804;2024-03-22T04:53:20;28.50;;;13.10;;
75535;SDS011;64119;52.070;20.804;2024-03-22T04:55:48;29.40;;;13.80;;
75535;SDS011;64119;52.070;20.804;2024-03-22T04:58:17;23.90;;;11.70;;
75535;SDS011;64119;52.070;20.804;2024-03-22T05:03:15;26.30;;;12.00;;
75535;SDS011;64119;52.070;20.804;2024-03-22T05:05:43;30.70;;;14.70;;
75535;SDS011;64119;52.070;20.804;2024-03-22T05:08:11;29.80;;;14.00;;
75535;SDS011;64119;52.070;20.804;2024-03-22T05:10:39;25.60;;;11.60;;
75535;SDS011;64119;52.070;20.804;2024-03-22T05:13:06;29.40;;;13.80;;
75535;SDS011;64119;52.070;20.804;2024-03-22T05:15:34;29.60;;;13.10;;
75535;SDS011;64119;52.070;20.804;2024-03-22T05:18:01;29.10;;;14.70;;
75535;SDS011;64119;52.070;20.804;2024-03-22T05:20:29;24.00;;;12.60;;
75535;SDS011;64119;52.070;20.804;2024-03-22T05:22:57;27.60;;;14.20;;
75535;SDS011;64119;52.070;20.804;2024-03-22T05:25:26;25.50;;;12.30;;
75535;SDS011;64119;52.070;20.804;2024-03-22T05:27:56;26.70;;;11.50;;
75535;SDS011;64119;52.070;20.804;2024-03-22T05:30:23;33.60;;;14.30;;
75535;SDS011;64119;52.070;20.804;2024-03-22T05:32:51;28.10;;;12.80;;
75535;SDS011;64119;52.070;20.804;2024-03-22T05:35:18;29.80;;;12.70;;
75535;SDS011;64119;52.070;20.804;2024-03-22T05:37:46;29.10;;;13.70;;
75535;SDS011;64119;52.070;20.804;2024-03-22T05:40:14;27.50;;;13.70;;
75535;SDS011;64119;52.070;20.804;2024-03-22T05:42:43;30.40;;;13.70;;
75535;SDS011;64119;52.070;20.804;2024-03-22T05:45:10;27.80;;;13.30;;
75535;SDS011;64119;52.070;20.804;2024-03-22T05:47:38;27.90;;;12.90;;
75535;SDS011;64119;52.070;20.804;2024-03-22T05:50:06;27.90;;;13.70;;
75535;SDS011;64119;52.070;20.804;2024-03-22T05:52:35;30.00;;;13.40;;
75535;SDS011;64119;52.070;20.804;2024-03-22T05:55:03;31.70;;;13.30;;
75535;SDS011;64119;52.070;20.804;2024-03-22T05:57:31;27.40;;;12.60;;
75535;SDS011;64119;52.070;20.804;2024-03-22T05:59:58;28.70;;;12.00;;
75535;SDS011;64119;52.070;20.804;2024-03-22T06:02:26;25.70;;;13.20;;
75535;SDS011;64119;52.070;20.804;2024-03-22T06:04:53;27.20;;;12.70;;
75535;SDS011;64119;52.070;20.804;2024-03-22T06:07:21;27.30;;;13.10;;
75535;SDS011;64119;52.070;20.804;2024-03-22T06:09:49;27.60;;;12.70;;
75535;SDS011;64119;52.070;20.804;2024-03-22T06:12:16;29.50;;;13.60;;
75535;SDS011;64119;52.070;20.804;2024-03-22T06:14:45;27.10;;;11.50;;
75535;SDS011;64119;52.070;20.804;2024-03-22T06:17:16;23.40;;;10.90;;
75535;SDS011;64119;52.070;20.804;2024-03-22T06:19:43;26.20;;;12.70;;
75535;SDS011;64119;52.070;20.804;2024-03-22T06:22:11;25.30;;;11.10;;
75535;SDS011;64119;52.070;20.804;2024-03-22T06:24:39;24.60;;;11.10;;
75535;SDS011;64119;52.070;20.804;2024-03-22T06:27:07;31.00;;;13.80;;
75535;SDS011;64119;52.070;20.804;2024-03-22T06:29:35;27.50;;;12.70;;
75535;SDS011;64119;52.070;20.804;2024-03-22T06:32:02;29.40;;;12.70;;
75535;SDS011;64119;52.070;20.804;2024-03-22T06:34:30;25.80;;;12.20;;
75535;SDS011;64119;52.070;20.804;2024-03-22T06:36:57;28.50;;;12.90;;
75535;SDS011;64119;52.070;20.804;2024-03-22T06:39:25;23.70;;;12.70;;
75535;SDS011;64119;52.070;20.804;2024-03-22T06:41:52;25.80;;;13.10;;
75535;SDS011;64119;52.070;20.804;2024-03-22T06:44:20;26.40;;;12.40;;
75535;SDS011;64119;52.070;20.804;2024-03-22T06:46:48;27.00;;;13.20;;
75535;SDS011;64119;52.070;20.804;2024-03-22T06:49:16;28.30;;;13.30;;
75535;SDS011;64119;52.070;20.804;2024-03-22T06:51:44;28.80;;;13.60;;
75535;SDS011;64119;52.070;20.804;2024-03-22T06:54:12;28.00;;;12.70;;
75535;SDS011;64119;52.070;20.804;2024-03-22T06:56:39;24.30;;;11.50;;
75535;SDS011;64119;52.070;20.804;2024-03-22T06:59:08;25.50;;;12.00;;
75535;SDS011;64119;52.070;20.804;2024-03-22T07:01:36;25.10;;;12.00;;
75535;SDS011;64119;52.070;20.804;2024-03-22T07:04:03;24.60;;;11.50;;
75535;SDS011;64119;52.070;20.804;2024-03-22T07:06:31;31.40;;;13.50;;
75535;SDS011;64119;52.070;20.804;2024-03-22T07:08:58;25.50;;;11.80;;
75535;SDS011;64119;52.070;20.804;2024-03-22T07:11:26;28.70;;;12.60;;
75535;SDS011;64119;52.070;20.804;2024-03-22T07:13:53;30.30;;;13.90;;
75535;SDS011;64119;52.070;20.804;2024-03-22T07:16:21;27.40;;;13.30;;
75535;SDS011;64119;52.070;20.804;2024-03-22T07:18:48;28.20;;;12.30;;
75535;SDS011;64119;52.070;20.804;2024-03-22T07:21:16;25.80;;;11.80;;
75535;SDS011;64119;52.070;20.804;2024-03-22T07:23:44;29.60;;;13.50;;
75535;SDS011;64119;52.070;20.804;2024-03-22T07:26:11;28.30;;;12.20;;
75535;SDS011;64119;52.070;20.804;2024-03-22T07:28:40;31.00;;;13.30;;
75535;SDS011;64119;52.070;20.804;2024-03-22T07:31:07;30.70;;;13.70;;
75535;SDS011;64119;52.070;20.804;2024-03-22T07:33:35;23.40;;;11.50;;
75535;SDS011;64119;52.070;20.804;2024-03-22T07:36:02;26.40;;;13.30;;
75535;SDS011;64119;52.070;20.804;2024-03-22T07:38:30;23.20;;;11.50;;
75535;SDS011;64119;52.070;20.804;2024-03-22T07:40:58;29.30;;;13.20;;
75535;SDS011;64119;52.070;20.804;2024-03-22T07:43:25;27.10;;;11.90;;
75535;SDS011;64119;52.070;20.804;2024-03-22T07:45:53;23.40;;;11.80;;
75535;SDS011;64119;52.070;20.804;2024-03-22T07:48:20;21.80;;;11.60;;
75535;SDS011;64119;52.070;20.804;2024-03-22T07:50:55;25.10;;;12.50;;
75535;SDS011;64119;52.070;20.804;2024-03-22T07:53:26;25.40;;;12.60;;
75535;SDS011;64119;52.070;20.804;2024-03-22T07:55:57;21.30;;;11.00;;
75535;SDS011;64119;52.070;20.804;2024-03-22T07:58:24;22.80;;;11.90;;
75535;SDS011;64119;52.070;20.804;2024-03-22T08:00:52;20.00;;;10.70;;
75535;SDS011;64119;52.070;20.804;2024-03-22T08:03:20;24.90;;;11.40;;
75535;SDS011;64119;52.070;20.804;2024-03-22T08:05:47;24.50;;;12.20;;
75535;SDS011;64119;52.070;20.804;2024-03-22T08:08:15;27.00;;;11.80;;
75535;SDS011;64119;52.070;20.804;2024-03-22T08:10:43;22.50;;;12.00;;
75535;SDS011;64119;52.070;20.804;2024-03-22T08:13:10;24.00;;;12.20;;
75535;SDS011;64119;52.070;20.804;2024-03-22T08:15:38;25.00;;;12.30;;
75535;SDS011;64119;52.070;20.804;2024-03-22T08:18:06;26.10;;;13.10;;
75535;SDS011;64119;52.070;20.804;2024-03-22T08:20:33;25.60;;;12.00;;
75535;SDS011;64119;52.070;20.804;2024-03-22T08:23:02;28.20;;;13.90;;
75535;SDS011;64119;52.070;20.804;2024-03-22T08:25:29;26.10;;;13.00;;
75535;SDS011;64119;52.070;20.804;2024-03-22T08:27:57;28.40;;;13.60;;
75535;SDS011;64119;52.070;20.804;2024-03-22T08:30:31;29.10;;;14.30;;
75535;SDS011;64119;52.070;20.804;2024-03-22T08:32:59;29.10;;;14.20;;
75535;SDS011;64119;52.070;20.804;2024-03-22T08:35:26;29.20;;;13.30;;
75535;SDS011;64119;52.070;20.804;2024-03-22T08:37:54;29.80;;;14.00;;
75535;SDS011;64119;52.070;20.804;2024-03-22T08:40:21;29.90;;;14.90;;
75535;SDS011;64119;52.070;20.804;2024-03-22T08:42:50;29.20;;;13.90;;
75535;SDS011;64119;52.070;20.804;2024-03-22T08:45:17;29.90;;;15.60;;
75535;SDS011;64119;52.070;20.804;2024-03-22T08:47:45;31.40;;;15.00;;
75535;SDS011;64119;52.070;20.804;2024-03-22T08:50:13;30.20;;;14.60;;
75535;SDS011;64119;52.070;20.804;2024-03-22T08:52:42;27.40;;;14.00;;
75535;SDS011;64119;52.070;20.804;2024-03-22T08:55:10;28.70;;;12.10;;
75535;SDS011;64119;52.070;20.804;2024-03-22T08:57:38;24.80;;;11.60;;
75535;SDS011;64119;52.070;20.804;2024-03-22T09:00:16;21.10;;;10.50;;
75535;SDS011;64119;52.070;20.804;2024-03-22T09:02:44;22.50;;;11.70;;
75535;SDS011;64119;52.070;20.804;2024-03-22T09:05:12;21.60;;;11.60;;
75535;SDS011;64119;52.070;20.804;2024-03-22T09:07:39;24.10;;;11.70;;
75535;SDS011;64119;52.070;20.804;2024-03-22T09:10:07;19.10;;;9.50;;
75535;SDS011;64119;52.070;20.804;2024-03-22T09:12:35;21.30;;;10.40;;
75535;SDS011;64119;52.070;20.804;2024-03-22T09:15:03;19.70;;;10.40;;
75535;SDS011;64119;52.070;20.804;2024-03-22T09:17:30;20.20;;;9.90;;
75535;SDS011;64119;52.070;20.804;2024-03-22T09:19:58;19.90;;;10.10;;
75535;SDS011;64119;52.070;20.804;2024-03-22T09:22:25;23.40;;;11.00;;
75535;SDS011;64119;52.070;20.804;2024-03-22T09:24:53;21.90;;;11.10;;
75535;SDS011;64119;52.070;20.804;2024-03-22T09:27:20;20.30;;;11.30;;
75535;SDS011;64119;52.070;20.804;2024-03-22T09:29:48;23.70;;;12.70;;
75535;SDS011;64119;52.070;20.804;2024-03-22T09:32:16;25.70;;;12.30;;
75535;SDS011;64119;52.070;20.804;2024-03-22T09:34:43;25.90;;;12.90;;
75535;SDS011;64119;52.070;20.804;2024-03-22T09:37:11;25.40;;;11.90;;
75535;SDS011;64119;52.070;20.804;2024-03-22T09:39:38;22.10;;;11.60;;
75535;SDS011;64119;52.070;20.804;2024-03-22T09:42:06;23.60;;;11.00;;
75535;SDS011;64119;52.070;20.804;2024-03-22T09:44:35;20.70;;;11.40;;
75535;SDS011;64119;52.070;20.804;2024-03-22T09:47:03;27.00;;;11.90;;
75535;SDS011;64119;52.070;20.804;2024-03-22T09:49:31;22.60;;;11.80;;
75535;SDS011;64119;52.070;20.804;2024-03-22T09:51:59;21.50;;;11.80;;
75535;SDS011;64119;52.070;20.804;2024-03-22T09:54:27;26.80;;;11.70;;
75535;SDS011;64119;52.070;20.804;2024-03-22T09:56:55;24.20;;;11.30;;
75535;SDS011;64119;52.070;20.804;2024-03-22T09:59:23;25.70;;;11.80;;
75535;SDS011;64119;52.070;20.804;2024-03-22T10:01:51;25.40;;;12.50;;
75535;SDS011;64119;52.070;20.804;2024-03-22T10:04:20;24.50;;;11.90;;
75535;SDS011;64119;52.070;20.804;2024-03-22T10:06:47;21.80;;;11.00;;
75535;SDS011;64119;52.070;20.804;2024-03-22T10:09:15;27.00;;;13.40;;
75535;SDS011;64119;52.070;20.804;2024-03-22T10:11:45;24.80;;;12.80;;
75535;SDS011;64119;52.070;20.804;2024-03-22T10:14:13;28.50;;;12.90;;
75535;SDS011;64119;52.070;20.804;2024-03-22T10:16:55;24.10;;;12.50;;
75535;SDS011;64119;52.070;20.804;2024-03-22T10:19:24;26.60;;;13.20;;
75535;SDS011;64119;52.070;20.804;2024-03-22T10:22:01;26.60;;;12.30;;
75535;SDS011;64119;52.070;20.804;2024-03-22T10:24:29;28.30;;;13.70;;
75535;SDS011;64119;52.070;20.804;2024-03-22T10:26:57;28.40;;;12.20;;
75535;SDS011;64119;52.070;20.804;2024-03-22T10:29:25;24.10;;;12.20;;
75535;SDS011;64119;52.070;20.804;2024-03-22T10:31:54;22.60;;;11.70;;
75535;SDS011;64119;52.070;20.804;2024-03-22T10:34:26;22.30;;;11.80;;
75535;SDS011;64119;52.070;20.804;2024-03-22T10:36:55;19.20;;;10.90;;
75535;SDS011;64119;52.070;20.804;2024-03-22T10:39:25;21.80;;;12.00;;
75535;SDS011;64119;52.070;20.804;2024-03-22T10:41:53;24.40;;;11.90;;
75535;SDS011;64119;52.070;20.804;2024-03-22T10:44:21;23.20;;;11.50;;
75535;SDS011;64119;52.070;20.804;2024-03-22T10:46:50;20.10;;;11.40;;
75535;SDS011;64119;52.070;20.804;2024-03-22T10:49:23;23.20;;;11.60;;
75535;SDS011;64119;52.070;20.804;2024-03-22T10:51:56;21.50;;;12.50;;
75535;SDS011;64119;52.070;20.804;2024-03-22T10:54:31;19.50;;;10.00;;
75535;SDS011;64119;52.070;20.804;2024-03-22T10:57:02;18.90;;;10.40;;
75535;SDS011;64119;52.070;20.804;2024-03-22T10:59:34;15.40;;;8.20;;
75535;SDS011;64119;52.070;20.804;2024-03-22T11:02:03;19.40;;;9.80;;
75535;SDS011;64119;52.070;20.804;2024-03-22T11:06:59;16.70;;;9.10;;
75535;SDS011;64119;52.070;20.804;2024-03-22T11:09:27;15.30;;;8.50;;
75535;SDS011;64119;52.070;20.804;2024-03-22T11:11:55;15.60;;;8.50;;
75535;SDS011;64119;52.070;20.804;2024-03-22T11:14:26;13.50;;;7.40;;
75535;SDS011;64119;52.070;20.804;2024-03-22T11:16:53;13.90;;;6.90;;
75535;SDS011;64119;52.070;20.804;2024-03-22T11:19:21;13.50;;;7.80;;
75535;SDS011;64119;52.070;20.804;2024-03-22T11:21:48;14.30;;;7.70;;
75535;SDS011;64119;52.070;20.804;2024-03-22T11:24:16;13.20;;;7.60;;
75535;SDS011;64119;52.070;20.804;2024-03-22T11:26:43;14.40;;;7.30;;
75535;SDS011;64119;52.070;20.804;2024-03-22T11:29:12;13.60;;;7.70;;
75535;SDS011;64119;52.070;20.804;2024-03-22T11:31:41;10.70;;;6.40;;
75535;SDS011;64119;52.070;20.804;2024-03-22T11:34:09;10.70;;;6.10;;
75535;SDS011;64119;52.070;20.804;2024-03-22T11:36:38;11.40;;;6.60;;
75535;SDS011;64119;52.070;20.804;2024-03-22T11:39:06;11.30;;;6.30;;
75535;SDS011;64119;52.070;20.804;2024-03-22T11:41:34;10.50;;;6.10;;
75535;SDS011;64119;52.070;20.804;2024-03-22T11:44:02;11.90;;;6.70;;
75535;SDS011;64119;52.070;20.804;2024-03-22T11:46:30;12.00;;;6.40;;
75535;SDS011;64119;52.070;20.804;2024-03-22T11:48:58;13.30;;;7.00;;
75535;SDS011;64119;52.070;20.804;2024-03-22T11:51:26;10.60;;;6.30;;
75535;SDS011;64119;52.070;20.804;2024-03-22T11:53:54;11.90;;;6.70;;
75535;SDS011;64119;52.070;20.804;2024-03-22T11:56:24;12.10;;;6.70;;
75535;SDS011;64119;52.070;20.804;2024-03-22T11:58:59;11.80;;;6.60;;
75535;SDS011;64119;52.070;20.804;2024-03-22T12:01:28;13.80;;;6.70;;
75535;SDS011;64119;52.070;20.804;2024-03-22T12:04:01;8.40;;;5.60;;
75535;SDS011;64119;52.070;20.804;2024-03-22T12:06:29;11.70;;;6.20;;
75535;SDS011;64119;52.070;20.804;2024-03-22T12:08:57;10.40;;;6.30;;
75535;SDS011;64119;52.070;20.804;2024-03-22T12:11:24;11.10;;;6.50;;
75535;SDS011;64119;52.070;20.804;2024-03-22T12:13:52;11.20;;;6.30;;
75535;SDS011;64119;52.070;20.804;2024-03-22T12:16:20;10.30;;;6.30;;
75535;SDS011;64119;52.070;20.804;2024-03-22T12:18:47;10.00;;;5.80;;
75535;SDS011;64119;52.070;20.804;2024-03-22T12:21:17;11.20;;;5.60;;
75535;SDS011;64119;52.070;20.804;2024-03-22T12:23:44;13.00;;;7.40;;
75535;SDS011;64119;52.070;20.804;2024-03-22T12:26:13;10.70;;;5.90;;
75535;SDS011;64119;52.070;20.804;2024-03-22T12:28:40;13.00;;;6.10;;
75535;SDS011;64119;52.070;20.804;2024-03-22T12:31:08;11.80;;;6.20;;
75535;SDS011;64119;52.070;20.804;2024-03-22T12:33:37;16.40;;;6.10;;
75535;SDS011;64119;52.070;20.804;2024-03-22T12:36:05;10.60;;;6.40;;
75535;SDS011;64119;52.070;20.804;2024-03-22T12:38:32;9.50;;;5.10;;
75535;SDS011;64119;52.070;20.804;2024-03-22T12:41:01;11.00;;;6.40;;
75535;SDS011;64119;52.070;20.804;2024-03-22T12:43:28;12.40;;;5.80;;
75535;SDS011;64119;52.070;20.804;2024-03-22T12:45:58;17.80;;;6.90;;
75535;SDS011;64119;52.070;20.804;2024-03-22T12:48:25;11.10;;;6.20;;
75535;SDS011;64119;52.070;20.804;2024-03-22T12:50:53;15.50;;;6.20;;
75535;SDS011;64119;52.070;20.804;2024-03-22T12:53:20;9.80;;;6.40;;
75535;SDS011;64119;52.070;20.804;2024-03-22T12:55:48;10.30;;;5.60;;
75535;SDS011;64119;52.070;20.804;2024-03-22T12:58:15;10.90;;;6.70;;
75535;SDS011;64119;52.070;20.804;2024-03-22T13:00:44;12.50;;;6.80;;
75535;SDS011;64119;52.070;20.804;2024-03-22T13:03:11;10.50;;;6.70;;
75535;SDS011;64119;52.070;20.804;2024-03-22T13:05:40;10.80;;;6.80;;
75535;SDS011;64119;52.070;20.804;2024-03-22T13:08:08;9.60;;;6.40;;
75535;SDS011;64119;52.070;20.804;2024-03-22T13:10:35;11.50;;;7.30;;
75535;SDS011;64119;52.070;20.804;2024-03-22T13:13:03;12.00;;;7.40;;
75535;SDS011;64119;52.070;20.804;2024-03-22T13:15:31;13.60;;;7.10;;
75535;SDS011;64119;52.070;20.804;2024-03-22T13:17:59;10.90;;;6.90;;
75535;SDS011;64119;52.070;20.804;2024-03-22T13:20:27;16.70;;;8.40;;
75535;SDS011;64119;52.070;20.804;2024-03-22T13:22:54;17.20;;;7.50;;
75535;SDS011;64119;52.070;20.804;2024-03-22T13:25:22;13.90;;;8.10;;
75535;SDS011;64119;52.070;20.804;2024-03-22T13:27:50;11.10;;;7.80;;
75535;SDS011;64119;52.070;20.804;2024-03-22T13:30:17;12.90;;;7.10;;
75535;SDS011;64119;52.070;20.804;2024-03-22T13:32:45;11.20;;;7.30;;
75535;SDS011;64119;52.070;20.804;2024-03-22T13:35:13;10.40;;;7.70;;
75535;SDS011;64119;52.070;20.804;2024-03-22T13:37:41;12.80;;;7.80;;
75535;SDS011;64119;52.070;20.804;2024-03-22T13:40:08;11.60;;;6.60;;
75535;SDS011;64119;52.070;20.804;2024-03-22T13:42:39;11.30;;;7.10;;
75535;SDS011;64119;52.070;20.804;2024-03-22T13:45:06;12.10;;;7.00;;
75535;SDS011;64119;52.070;20.804;2024-03-22T13:47:34;11.10;;;6.90;;
75535;SDS011;64119;52.070;20.804;2024-03-22T13:50:04;12.20;;;7.60;;
75535;SDS011;64119;52.070;20.804;2024-03-22T13:52:32;13.30;;;7.50;;
75535;SDS011;64119;52.070;20.804;2024-03-22T13:55:03;11.00;;;7.10;;
75535;SDS011;64119;52.070;20.804;2024-03-22T13:57:31;16.90;;;7.70;;
75535;SDS011;64119;52.070;20.804;2024-03-22T14:00:00;14.50;;;8.40;;
75535;SDS011;64119;52.070;20.804;2024-03-22T14:02:39;17.70;;;8.60;;
75535;SDS011;64119;52.070;20.804;2024-03-22T14:05:06;13.10;;;8.00;;
75535;SDS011;64119;52.070;20.804;2024-03-22T14:07:36;13.40;;;7.50;;
75535;SDS011;64119;52.070;20.804;2024-03-22T14:10:07;14.80;;;8.40;;
75535;SDS011;64119;52.070;20.804;2024-03-22T14:12:36;12.90;;;7.40;;
75535;SDS011;64119;52.070;20.804;2024-03-22T14:15:03;14.90;;;7.60;;
75535;SDS011;64119;52.070;20.804;2024-03-22T14:17:34;11.90;;;7.20;;
75535;SDS011;64119;52.070;20.804;2024-03-22T14:20:01;12.80;;;7.50;;